Wittmann, Arizona
Current Conditions -  °F | °C
As of 12:18 AM on Saturday 29 Nov 2014 (Local Time) from KLUF Reporting Station
Haze Haze  
Wind Chill: 52°   Ceiling: Unl
Heat Index: 52°   Visibility: 4mi
Dew Point: 32°   Wind: 7mph
Humidity: 47%   Direction: 30°NNE
Pressure: 29.9"   Gusts: NA
Location:  33.78°N, 112.53°W
Report Text: KLUF 290718Z AUTO 03006KT 4SM HZ CLR 11/00 A2990 RMK AO2 VIS 1 3/4 RWY21 $
Loading
Personal Weather Stations






























Interactive Weather Map New forecast layout! Learn more

10-Day Weather Forecast

Advertisements
Track Severe Weather on mobile